Barcelona Knutsen — EACW — position and weather

sailwx.info

Track history (hours):
 
Tides and Currents Weather Stations Pressure Air Temp Water Temp Dewpoint Dewpoint Depression Visibility Wind Speed Wind Dir Waves Ship Positions

Barcelona Knutsen

Last reported at 2015-Jan-14 18:32 UTC. Time now 2015-Jan-26 12:32 UTC.
Position N 39°12' W 009°56'.
Warning: this ship's position is 11 days out of date.

Length 290 m; draft 9.6 m.

Type: Ship (hazmat cat B). MMSI: 224436000.

Date/timePositionNaut miles runAvg speedWind from/ knotsBaromVisibWave heightAir tempDewpointWater temp
2015-Jan-14 18:32N 39°12' W 009°56'1515.6
2015-Jan-14 17:33N 38°57' W 009°56'1615.7
2015-Jan-14 16:33N 38°41' W 009°55'1515.4
2015-Jan-14 15:33N 38°26' W 009°50'1615.5
2015-Jan-14 14:32N 38°11' W 009°46'1515.2
2015-Jan-14 13:33N 37°56' W 009°42'1514.9
2015-Jan-14 12:33N 37°41' W 009°38'1515.2
2015-Jan-14 11:33N 37°26' W 009°34'5412.3
2015-Jan-14 07:09N 36°39' W 009°00'813.2
2015-Jan-14 06:33N 36°37' W 008°51'1313.0
2015-Jan-14 05:33N 36°36' W 008°35'1313.1
2015-Jan-14 04:33N 36°33' W 008°19'1512.5
2015-Jan-14 03:20N 36°26' W 008°02'99 3.7
2015-Jan-13 00:21N 34°59' W 007°05'94 4.7
2015-Jan-12 04:33N 35°58' W 005°36'1111.4
2015-Jan-12 03:33N 36°01' W 005°22'1111.1
2015-Jan-12 02:33N 36°05' W 005°09'220 5.1
2015-Jan-10 07:33N 37°34' W 000°58'1 1.4
2015-Jan-10 06:34N 37°34' W 000°60'2 1.6
2015-Jan-10 05:33N 37°34' W 001°02'0 0.1
2015-Jan-10 04:31N 37°34' W 001°02'0 0.0
2015-Jan-10 03:31N 37°34' W 001°02'0 0.1
2015-Jan-10 02:31N 37°34' W 001°02'0 0.0
2015-Jan-10 01:31N 37°34' W 001°02'0 0.1
2015-Jan-10 00:31N 37°34' W 001°02'0 0.0
2015-Jan-09 23:31N 37°34' W 001°02'0 0.0
2015-Jan-09 22:31N 37°34' W 001°02'0 0.0
2015-Jan-09 21:31N 37°34' W 001°02'0 0.0
2015-Jan-09 20:31N 37°34' W 001°02'0 0.0
2015-Jan-09 19:31N 37°34' W 001°02'0 0.0
2015-Jan-09 18:31N 37°34' W 001°02'0 0.0
2015-Jan-09 17:31N 37°34' W 001°02'0 0.0
2015-Jan-09 16:31N 37°34' W 001°02'0 0.0
2015-Jan-09 15:31N 37°34' W 001°02'0 0.1
2015-Jan-09 14:31N 37°34' W 001°02'0 0.0
2015-Jan-09 13:31N 37°34' W 001°02'0 0.2
2015-Jan-09 12:31N 37°34' W 001°02'0 0.1
2015-Jan-09 11:31N 37°34' W 001°02'0 0.0
2015-Jan-09 10:31N 37°34' W 001°02'0 0.1
2015-Jan-09 09:31N 37°34' W 001°02'0 0.1
2015-Jan-09 08:31N 37°34' W 001°02'0 0.0
2015-Jan-09 07:31N 37°34' W 001°02'0 0.1
2015-Jan-09 06:31N 37°34' W 001°02'0 0.1
2015-Jan-09 05:31N 37°34' W 001°02'5 4.9
2015-Jan-09 04:33N 37°29' W 001°01'1313.5
2015-Jan-09 03:34N 37°18' W 001°11'20812.9
2015-Jan-08 11:28N 36°01' W 005°12'910.3
2015-Jan-08 10:34N 36°06' W 005°22'1 0.5
2015-Jan-08 09:33N 36°06' W 005°22'0 0.0
2015-Jan-08 08:33N 36°06' W 005°22'0 0.0
2015-Jan-08 07:33N 36°06' W 005°22'0 0.1
2015-Jan-08 06:33N 36°06' W 005°22'0 0.0
2015-Jan-08 05:33N 36°06' W 005°22'0 0.0
2015-Jan-08 04:30N 36°06' W 005°22'0 0.0
2015-Jan-08 03:42N 36°06' W 005°22'  
Track history (hours):
 
Tides and Currents Weather Stations Pressure Air Temp Water Temp Dewpoint Dewpoint Depression Visibility Wind Speed Wind Dir Waves Ship Positions

Barcelona Knutsen

Last reported at 2015-Jan-14 18:32 UTC. Time now 2015-Jan-26 12:32 UTC.
Position N 39°12' W 009°56'.
Warning: this ship's position is 11 days out of date.

Length 290 m; draft 9.6 m.

Type: Ship (hazmat cat B). MMSI: 224436000.

Date/timePositionNaut miles runAvg speedWind from/ knotsBaromVisibWave heightAir tempDewpointWater temp
2015-Jan-14 18:32N 39°12' W 009°56'1515.6
2015-Jan-14 17:33N 38°57' W 009°56'1615.7
2015-Jan-14 16:33N 38°41' W 009°55'1515.4
2015-Jan-14 15:33N 38°26' W 009°50'1615.5
2015-Jan-14 14:32N 38°11' W 009°46'1515.2
2015-Jan-14 13:33N 37°56' W 009°42'1514.9
2015-Jan-14 12:33N 37°41' W 009°38'1515.2
2015-Jan-14 11:33N 37°26' W 009°34'5412.3
2015-Jan-14 07:09N 36°39' W 009°00'813.2
2015-Jan-14 06:33N 36°37' W 008°51'1313.0
2015-Jan-14 05:33N 36°36' W 008°35'1313.1
2015-Jan-14 04:33N 36°33' W 008°19'1512.5
2015-Jan-14 03:20N 36°26' W 008°02'99 3.7
2015-Jan-13 00:21N 34°59' W 007°05'94 4.7
2015-Jan-12 04:33N 35°58' W 005°36'1111.4
2015-Jan-12 03:33N 36°01' W 005°22'1111.1
2015-Jan-12 02:33N 36°05' W 005°09'220 5.1
2015-Jan-10 07:33N 37°34' W 000°58'1 1.4
2015-Jan-10 06:34N 37°34' W 000°60'2 1.6
2015-Jan-10 05:33N 37°34' W 001°02'0 0.1
2015-Jan-10 04:31N 37°34' W 001°02'0 0.0
2015-Jan-10 03:31N 37°34' W 001°02'0 0.1
2015-Jan-10 02:31N 37°34' W 001°02'0 0.0
2015-Jan-10 01:31N 37°34' W 001°02'0 0.1
2015-Jan-10 00:31N 37°34' W 001°02'0 0.0
2015-Jan-09 23:31N 37°34' W 001°02'0 0.0
2015-Jan-09 22:31N 37°34' W 001°02'0 0.0
2015-Jan-09 21:31N 37°34' W 001°02'0 0.0
2015-Jan-09 20:31N 37°34' W 001°02'0 0.0
2015-Jan-09 19:31N 37°34' W 001°02'0 0.0
2015-Jan-09 18:31N 37°34' W 001°02'0 0.0
2015-Jan-09 17:31N 37°34' W 001°02'0 0.0
2015-Jan-09 16:31N 37°34' W 001°02'0 0.0
2015-Jan-09 15:31N 37°34' W 001°02'0 0.1
2015-Jan-09 14:31N 37°34' W 001°02'0 0.0
2015-Jan-09 13:31N 37°34' W 001°02'0 0.2
2015-Jan-09 12:31N 37°34' W 001°02'0 0.1
2015-Jan-09 11:31N 37°34' W 001°02'0 0.0
2015-Jan-09 10:31N 37°34' W 001°02'0 0.1
2015-Jan-09 09:31N 37°34' W 001°02'0 0.1
2015-Jan-09 08:31N 37°34' W 001°02'0 0.0
2015-Jan-09 07:31N 37°34' W 001°02'0 0.1
2015-Jan-09 06:31N 37°34' W 001°02'0 0.1
2015-Jan-09 05:31N 37°34' W 001°02'5 4.9
2015-Jan-09 04:33N 37°29' W 001°01'1313.5
2015-Jan-09 03:34N 37°18' W 001°11'20812.9
2015-Jan-08 11:28N 36°01' W 005°12'910.3
2015-Jan-08 10:34N 36°06' W 005°22'1 0.5
2015-Jan-08 09:33N 36°06' W 005°22'0 0.0
2015-Jan-08 08:33N 36°06' W 005°22'0 0.0
2015-Jan-08 07:33N 36°06' W 005°22'0 0.1
2015-Jan-08 06:33N 36°06' W 005°22'0 0.0
2015-Jan-08 05:33N 36°06' W 005°22'0 0.0
2015-Jan-08 04:30N 36°06' W 005°22'0 0.0
2015-Jan-08 03:42N 36°06' W 005°22'  

Dump ship's entire track history